sensor_id;sensor_type;location;lat;lon;timestamp;P1;durP1;ratioP1;P2;durP2;ratioP2
39266;SDS011;24967;51.154;13.812;2022-08-30T00:01:22;7.45;;;5.07;;
39266;SDS011;24967;51.154;13.812;2022-08-30T00:03:49;5.07;;;4.57;;
39266;SDS011;24967;51.154;13.812;2022-08-30T00:06:17;6.05;;;5.53;;
39266;SDS011;24967;51.154;13.812;2022-08-30T00:08:45;5.65;;;5.05;;
39266;SDS011;24967;51.154;13.812;2022-08-30T00:11:14;5.97;;;5.03;;
39266;SDS011;24967;51.154;13.812;2022-08-30T00:13:44;5.22;;;4.72;;
39266;SDS011;24967;51.154;13.812;2022-08-30T00:16:13;5.20;;;4.80;;
39266;SDS011;24967;51.154;13.812;2022-08-30T00:18:41;5.82;;;4.70;;
39266;SDS011;24967;51.154;13.812;2022-08-30T00:21:08;5.90;;;4.85;;
39266;SDS011;24967;51.154;13.812;2022-08-30T00:23:35;6.22;;;5.05;;
39266;SDS011;24967;51.154;13.812;2022-08-30T00:26:03;5.40;;;4.90;;
39266;SDS011;24967;51.154;13.812;2022-08-30T00:28:30;5.63;;;4.82;;
39266;SDS011;24967;51.154;13.812;2022-08-30T00:30:59;5.63;;;5.10;;
39266;SDS011;24967;51.154;13.812;2022-08-30T00:33:26;5.30;;;4.90;;
39266;SDS011;24967;51.154;13.812;2022-08-30T00:35:53;5.85;;;5.35;;
39266;SDS011;24967;51.154;13.812;2022-08-30T00:38:20;7.70;;;4.85;;
39266;SDS011;24967;51.154;13.812;2022-08-30T00:40:47;5.88;;;5.38;;
39266;SDS011;24967;51.154;13.812;2022-08-30T00:43:15;6.35;;;5.13;;
39266;SDS011;24967;51.154;13.812;2022-08-30T00:45:44;5.47;;;4.93;;
39266;SDS011;24967;51.154;13.812;2022-08-30T00:48:13;6.00;;;5.30;;
39266;SDS011;24967;51.154;13.812;2022-08-30T00:50:41;5.20;;;4.70;;
39266;SDS011;24967;51.154;13.812;2022-08-30T00:53:13;6.47;;;5.20;;
39266;SDS011;24967;51.154;13.812;2022-08-30T00:55:44;6.80;;;5.03;;
39266;SDS011;24967;51.154;13.812;2022-08-30T00:58:13;7.13;;;5.82;;
39266;SDS011;24967;51.154;13.812;2022-08-30T01:00:45;7.35;;;5.28;;
39266;SDS011;24967;51.154;13.812;2022-08-30T01:03:13;6.85;;;6.25;;
39266;SDS011;24967;51.154;13.812;2022-08-30T01:05:40;7.55;;;6.55;;
39266;SDS011;24967;51.154;13.812;2022-08-30T01:08:08;6.28;;;5.68;;
39266;SDS011;24967;51.154;13.812;2022-08-30T01:10:34;6.45;;;5.85;;
39266;SDS011;24967;51.154;13.812;2022-08-30T01:13:02;6.10;;;5.60;;
39266;SDS011;24967;51.154;13.812;2022-08-30T01:15:29;5.72;;;5.13;;
39266;SDS011;24967;51.154;13.812;2022-08-30T01:17:57;6.93;;;6.22;;
39266;SDS011;24967;51.154;13.812;2022-08-30T01:20:26;8.40;;;5.32;;
39266;SDS011;24967;51.154;13.812;2022-08-30T01:25:42;5.70;;;5.20;;
39266;SDS011;24967;51.154;13.812;2022-08-30T01:28:13;8.07;;;4.75;;
39266;SDS011;24967;51.154;13.812;2022-08-30T01:30:42;5.20;;;4.80;;
39266;SDS011;24967;51.154;13.812;2022-08-30T01:33:10;5.13;;;4.63;;
39266;SDS011;24967;51.154;13.812;2022-08-30T01:35:44;5.30;;;4.82;;
39266;SDS011;24967;51.154;13.812;2022-08-30T01:38:15;6.32;;;4.88;;
39266;SDS011;24967;51.154;13.812;2022-08-30T01:40:42;6.43;;;5.70;;
39266;SDS011;24967;51.154;13.812;2022-08-30T01:43:11;5.60;;;5.03;;
39266;SDS011;24967;51.154;13.812;2022-08-30T01:45:39;6.43;;;5.33;;
39266;SDS011;24967;51.154;13.812;2022-08-30T01:51:28;8.13;;;5.28;;
39266;SDS011;24967;51.154;13.812;2022-08-30T01:53:57;6.03;;;5.47;;
39266;SDS011;24967;51.154;13.812;2022-08-30T01:56:24;5.68;;;5.07;;
39266;SDS011;24967;51.154;13.812;2022-08-30T01:58:53;6.25;;;5.70;;
39266;SDS011;24967;51.154;13.812;2022-08-30T02:01:21;5.78;;;5.22;;
39266;SDS011;24967;51.154;13.812;2022-08-30T02:03:49;6.55;;;5.78;;
39266;SDS011;24967;51.154;13.812;2022-08-30T02:06:19;7.13;;;5.32;;
39266;SDS011;24967;51.154;13.812;2022-08-30T02:08:47;5.65;;;5.18;;
39266;SDS011;24967;51.154;13.812;2022-08-30T02:11:16;6.20;;;5.45;;
39266;SDS011;24967;51.154;13.812;2022-08-30T02:13:43;7.95;;;5.80;;
39266;SDS011;24967;51.154;13.812;2022-08-30T02:16:11;6.30;;;5.70;;
39266;SDS011;24967;51.154;13.812;2022-08-30T02:18:40;5.63;;;5.13;;
39266;SDS011;24967;51.154;13.812;2022-08-30T02:21:07;6.22;;;5.63;;
39266;SDS011;24967;51.154;13.812;2022-08-30T02:23:34;7.72;;;5.28;;
39266;SDS011;24967;51.154;13.812;2022-08-30T02:26:01;5.60;;;5.10;;
39266;SDS011;24967;51.154;13.812;2022-08-30T02:28:31;8.10;;;5.68;;
39266;SDS011;24967;51.154;13.812;2022-08-30T02:30:58;6.05;;;5.28;;
39266;SDS011;24967;51.154;13.812;2022-08-30T02:33:25;7.28;;;5.20;;
39266;SDS011;24967;51.154;13.812;2022-08-30T02:35:51;5.57;;;5.03;;
39266;SDS011;24967;51.154;13.812;2022-08-30T02:38:18;6.95;;;5.15;;
39266;SDS011;24967;51.154;13.812;2022-08-30T02:40:45;9.23;;;6.00;;
39266;SDS011;24967;51.154;13.812;2022-08-30T02:43:11;6.63;;;5.00;;
39266;SDS011;24967;51.154;13.812;2022-08-30T02:45:44;7.38;;;5.43;;
39266;SDS011;24967;51.154;13.812;2022-08-30T02:48:10;7.13;;;5.25;;
39266;SDS011;24967;51.154;13.812;2022-08-30T02:50:38;6.80;;;6.13;;
39266;SDS011;24967;51.154;13.812;2022-08-30T02:53:05;8.68;;;5.63;;
39266;SDS011;24967;51.154;13.812;2022-08-30T02:55:31;5.68;;;5.18;;
39266;SDS011;24967;51.154;13.812;2022-08-30T02:57:58;5.68;;;5.13;;
39266;SDS011;24967;51.154;13.812;2022-08-30T03:00:24;5.47;;;4.95;;
39266;SDS011;24967;51.154;13.812;2022-08-30T03:02:52;5.22;;;4.72;;
39266;SDS011;24967;51.154;13.812;2022-08-30T03:05:19;5.63;;;5.18;;
39266;SDS011;24967;51.154;13.812;2022-08-30T03:07:46;6.35;;;5.18;;
39266;SDS011;24967;51.154;13.812;2022-08-30T03:10:12;5.45;;;4.90;;
39266;SDS011;24967;51.154;13.812;2022-08-30T03:12:40;8.48;;;5.50;;
39266;SDS011;24967;51.154;13.812;2022-08-30T03:15:08;7.88;;;4.82;;
39266;SDS011;24967;51.154;13.812;2022-08-30T03:17:37;5.50;;;4.93;;
39266;SDS011;24967;51.154;13.812;2022-08-30T03:20:06;5.40;;;4.88;;
39266;SDS011;24967;51.154;13.812;2022-08-30T03:22:34;8.30;;;4.75;;
39266;SDS011;24967;51.154;13.812;2022-08-30T03:25:00;5.20;;;4.75;;
39266;SDS011;24967;51.154;13.812;2022-08-30T03:27:27;5.80;;;5.20;;
39266;SDS011;24967;51.154;13.812;2022-08-30T03:29:54;5.32;;;4.82;;
39266;SDS011;24967;51.154;13.812;2022-08-30T03:32:21;6.40;;;5.35;;
39266;SDS011;24967;51.154;13.812;2022-08-30T03:34:48;7.68;;;5.18;;
39266;SDS011;24967;51.154;13.812;2022-08-30T03:37:16;7.60;;;5.30;;
39266;SDS011;24967;51.154;13.812;2022-08-30T03:39:44;4.85;;;4.28;;
39266;SDS011;24967;51.154;13.812;2022-08-30T03:42:10;6.93;;;4.60;;
39266;SDS011;24967;51.154;13.812;2022-08-30T03:44:37;6.15;;;5.03;;
39266;SDS011;24967;51.154;13.812;2022-08-30T03:47:04;6.90;;;5.30;;
39266;SDS011;24967;51.154;13.812;2022-08-30T03:49:31;6.47;;;5.78;;
39266;SDS011;24967;51.154;13.812;2022-08-30T03:51:57;5.95;;;5.28;;
39266;SDS011;24967;51.154;13.812;2022-08-30T03:54:25;8.60;;;5.57;;
39266;SDS011;24967;51.154;13.812;2022-08-30T03:56:52;6.07;;;5.00;;
39266;SDS011;24967;51.154;13.812;2022-08-30T03:59:18;6.53;;;5.82;;
39266;SDS011;24967;51.154;13.812;2022-08-30T04:01:45;6.43;;;5.82;;
39266;SDS011;24967;51.154;13.812;2022-08-30T04:04:11;6.50;;;5.30;;
39266;SDS011;24967;51.154;13.812;2022-08-30T04:06:38;6.00;;;5.40;;
39266;SDS011;24967;51.154;13.812;2022-08-30T04:09:05;5.45;;;4.82;;
39266;SDS011;24967;51.154;13.812;2022-08-30T04:11:33;5.63;;;4.70;;
39266;SDS011;24967;51.154;13.812;2022-08-30T04:14:00;4.97;;;4.53;;
39266;SDS011;24967;51.154;13.812;2022-08-30T04:16:26;4.45;;;4.05;;
39266;SDS011;24967;51.154;13.812;2022-08-30T04:18:53;5.05;;;3.95;;
39266;SDS011;24967;51.154;13.812;2022-08-30T04:21:19;4.88;;;3.85;;
39266;SDS011;24967;51.154;13.812;2022-08-30T04:23:46;5.13;;;4.63;;
39266;SDS011;24967;51.154;13.812;2022-08-30T04:26:12;5.97;;;4.60;;
39266;SDS011;24967;51.154;13.812;2022-08-30T04:28:40;8.90;;;5.03;;
39266;SDS011;24967;51.154;13.812;2022-08-30T04:31:07;5.28;;;4.78;;
39266;SDS011;24967;51.154;13.812;2022-08-30T04:33:35;6.00;;;5.40;;
39266;SDS011;24967;51.154;13.812;2022-08-30T04:36:03;6.05;;;5.38;;
39266;SDS011;24967;51.154;13.812;2022-08-30T04:38:31;6.25;;;5.25;;
39266;SDS011;24967;51.154;13.812;2022-08-30T04:40:58;6.80;;;5.22;;
39266;SDS011;24967;51.154;13.812;2022-08-30T04:43:25;7.85;;;7.05;;
39266;SDS011;24967;51.154;13.812;2022-08-30T04:45:53;6.35;;;5.75;;
39266;SDS011;24967;51.154;13.812;2022-08-30T04:48:21;7.82;;;5.68;;
39266;SDS011;24967;51.154;13.812;2022-08-30T04:50:47;6.47;;;5.13;;
39266;SDS011;24967;51.154;13.812;2022-08-30T04:53:14;4.47;;;4.07;;
39266;SDS011;24967;51.154;13.812;2022-08-30T04:55:42;3.83;;;3.63;;
39266;SDS011;24967;51.154;13.812;2022-08-30T04:58:09;17.27;;;4.28;;
39266;SDS011;24967;51.154;13.812;2022-08-30T05:00:35;10.35;;;4.47;;
39266;SDS011;24967;51.154;13.812;2022-08-30T05:03:03;6.32;;;5.72;;
39266;SDS011;24967;51.154;13.812;2022-08-30T05:05:30;6.43;;;5.55;;
39266;SDS011;24967;51.154;13.812;2022-08-30T05:08:06;7.35;;;5.57;;
39266;SDS011;24967;51.154;13.812;2022-08-30T05:10:36;6.43;;;5.65;;
39266;SDS011;24967;51.154;13.812;2022-08-30T05:13:04;7.55;;;6.15;;
39266;SDS011;24967;51.154;13.812;2022-08-30T05:15:30;11.30;;;6.50;;
39266;SDS011;24967;51.154;13.812;2022-08-30T05:17:57;7.18;;;6.47;;
39266;SDS011;24967;51.154;13.812;2022-08-30T05:20:25;10.75;;;7.00;;
39266;SDS011;24967;51.154;13.812;2022-08-30T05:22:51;7.38;;;6.68;;
39266;SDS011;24967;51.154;13.812;2022-08-30T05:25:19;7.88;;;6.53;;
39266;SDS011;24967;51.154;13.812;2022-08-30T05:27:46;7.10;;;6.40;;
39266;SDS011;24967;51.154;13.812;2022-08-30T05:30:13;7.13;;;6.38;;
39266;SDS011;24967;51.154;13.812;2022-08-30T05:32:41;9.32;;;6.95;;
39266;SDS011;24967;51.154;13.812;2022-08-30T05:35:08;8.40;;;6.93;;
39266;SDS011;24967;51.154;13.812;2022-08-30T05:37:38;7.68;;;6.30;;
39266;SDS011;24967;51.154;13.812;2022-08-30T05:40:05;9.63;;;7.50;;
39266;SDS011;24967;51.154;13.812;2022-08-30T05:42:33;8.60;;;7.03;;
39266;SDS011;24967;51.154;13.812;2022-08-30T05:45:00;9.95;;;7.07;;
39266;SDS011;24967;51.154;13.812;2022-08-30T05:47:29;9.00;;;6.78;;
39266;SDS011;24967;51.154;13.812;2022-08-30T05:49:55;6.50;;;5.90;;
39266;SDS011;24967;51.154;13.812;2022-08-30T05:52:21;5.75;;;5.25;;
39266;SDS011;24967;51.154;13.812;2022-08-30T05:54:51;7.35;;;5.72;;
39266;SDS011;24967;51.154;13.812;2022-08-30T05:57:19;5.40;;;5.00;;
39266;SDS011;24967;51.154;13.812;2022-08-30T05:59:46;7.55;;;5.00;;
39266;SDS011;24967;51.154;13.812;2022-08-30T06:02:13;4.75;;;4.43;;
39266;SDS011;24967;51.154;13.812;2022-08-30T06:04:40;4.65;;;4.22;;
39266;SDS011;24967;51.154;13.812;2022-08-30T06:07:06;5.25;;;4.82;;
39266;SDS011;24967;51.154;13.812;2022-08-30T06:09:33;4.55;;;4.07;;
39266;SDS011;24967;51.154;13.812;2022-08-30T06:12:01;5.70;;;4.07;;
39266;SDS011;24967;51.154;13.812;2022-08-30T06:14:28;4.93;;;4.53;;
39266;SDS011;24967;51.154;13.812;2022-08-30T06:16:54;5.60;;;5.10;;
39266;SDS011;24967;51.154;13.812;2022-08-30T06:19:22;4.88;;;4.47;;
39266;SDS011;24967;51.154;13.812;2022-08-30T06:21:49;8.90;;;5.10;;
39266;SDS011;24967;51.154;13.812;2022-08-30T06:24:16;9.02;;;5.07;;
39266;SDS011;24967;51.154;13.812;2022-08-30T06:26:44;5.63;;;5.10;;
39266;SDS011;24967;51.154;13.812;2022-08-30T06:29:17;7.32;;;4.78;;
39266;SDS011;24967;51.154;13.812;2022-08-30T06:31:45;5.22;;;4.53;;
39266;SDS011;24967;51.154;13.812;2022-08-30T06:34:11;5.25;;;4.80;;
39266;SDS011;24967;51.154;13.812;2022-08-30T06:36:39;5.22;;;4.80;;
39266;SDS011;24967;51.154;13.812;2022-08-30T06:39:07;5.63;;;5.07;;
39266;SDS011;24967;51.154;13.812;2022-08-30T06:41:34;7.90;;;5.05;;
39266;SDS011;24967;51.154;13.812;2022-08-30T06:44:04;5.45;;;4.85;;
39266;SDS011;24967;51.154;13.812;2022-08-30T06:46:33;6.32;;;5.07;;
39266;SDS011;24967;51.154;13.812;2022-08-30T06:49:01;7.38;;;5.40;;
39266;SDS011;24967;51.154;13.812;2022-08-30T06:51:30;6.60;;;5.25;;
39266;SDS011;24967;51.154;13.812;2022-08-30T06:54:01;8.35;;;5.13;;
39266;SDS011;24967;51.154;13.812;2022-08-30T06:56:29;5.88;;;5.00;;
39266;SDS011;24967;51.154;13.812;2022-08-30T06:58:56;7.45;;;5.30;;
39266;SDS011;24967;51.154;13.812;2022-08-30T07:01:24;6.10;;;5.18;;
39266;SDS011;24967;51.154;13.812;2022-08-30T07:03:53;6.22;;;5.28;;
39266;SDS011;24967;51.154;13.812;2022-08-30T07:06:20;6.53;;;5.40;;
39266;SDS011;24967;51.154;13.812;2022-08-30T07:08:48;7.82;;;5.78;;
39266;SDS011;24967;51.154;13.812;2022-08-30T07:11:23;6.97;;;5.35;;
39266;SDS011;24967;51.154;13.812;2022-08-30T07:13:50;5.15;;;4.63;;
39266;SDS011;24967;51.154;13.812;2022-08-30T07:16:17;5.90;;;5.13;;
39266;SDS011;24967;51.154;13.812;2022-08-30T07:18:44;7.25;;;5.35;;
39266;SDS011;24967;51.154;13.812;2022-08-30T07:21:18;5.68;;;4.85;;
39266;SDS011;24967;51.154;13.812;2022-08-30T07:23:47;7.72;;;4.97;;
39266;SDS011;24967;51.154;13.812;2022-08-30T07:26:15;5.95;;;5.15;;
39266;SDS011;24967;51.154;13.812;2022-08-30T07:28:44;5.97;;;5.25;;
39266;SDS011;24967;51.154;13.812;2022-08-30T07:31:11;6.85;;;5.63;;
39266;SDS011;24967;51.154;13.812;2022-08-30T07:33:39;8.52;;;5.82;;
39266;SDS011;24967;51.154;13.812;2022-08-30T07:36:06;6.63;;;5.10;;
39266;SDS011;24967;51.154;13.812;2022-08-30T07:38:35;7.32;;;5.30;;
39266;SDS011;24967;51.154;13.812;2022-08-30T07:41:03;7.15;;;5.43;;
39266;SDS011;24967;51.154;13.812;2022-08-30T07:43:34;9.05;;;5.03;;
39266;SDS011;24967;51.154;13.812;2022-08-30T07:46:03;9.73;;;4.82;;
39266;SDS011;24967;51.154;13.812;2022-08-30T07:48:31;6.47;;;4.97;;
39266;SDS011;24967;51.154;13.812;2022-08-30T07:50:58;9.10;;;4.50;;
39266;SDS011;24967;51.154;13.812;2022-08-30T07:53:25;6.07;;;5.03;;
39266;SDS011;24967;51.154;13.812;2022-08-30T07:55:53;5.32;;;4.70;;
39266;SDS011;24967;51.154;13.812;2022-08-30T07:58:19;5.15;;;4.65;;
39266;SDS011;24967;51.154;13.812;2022-08-30T08:00:46;5.55;;;4.70;;
39266;SDS011;24967;51.154;13.812;2022-08-30T08:03:13;8.48;;;4.68;;
39266;SDS011;24967;51.154;13.812;2022-08-30T08:05:41;6.10;;;4.35;;
39266;SDS011;24967;51.154;13.812;2022-08-30T08:08:10;6.30;;;5.00;;
39266;SDS011;24967;51.154;13.812;2022-08-30T08:10:39;4.32;;;3.92;;
39266;SDS011;24967;51.154;13.812;2022-08-30T08:13:07;7.28;;;4.57;;
39266;SDS011;24967;51.154;13.812;2022-08-30T08:15:34;5.72;;;4.63;;
39266;SDS011;24967;51.154;13.812;2022-08-30T08:18:01;5.80;;;4.70;;
39266;SDS011;24967;51.154;13.812;2022-08-30T08:20:28;7.55;;;4.82;;
39266;SDS011;24967;51.154;13.812;2022-08-30T08:22:56;4.57;;;3.88;;
39266;SDS011;24967;51.154;13.812;2022-08-30T08:25:22;8.05;;;4.38;;
39266;SDS011;24967;51.154;13.812;2022-08-30T08:27:49;7.47;;;4.45;;
39266;SDS011;24967;51.154;13.812;2022-08-30T08:30:19;5.38;;;4.00;;
39266;SDS011;24967;51.154;13.812;2022-08-30T08:32:47;4.93;;;4.30;;
39266;SDS011;24967;51.154;13.812;2022-08-30T08:35:13;5.47;;;4.18;;
39266;SDS011;24967;51.154;13.812;2022-08-30T08:37:41;5.28;;;4.00;;
39266;SDS011;24967;51.154;13.812;2022-08-30T08:40:08;4.55;;;3.80;;
39266;SDS011;24967;51.154;13.812;2022-08-30T08:42:49;4.80;;;4.05;;
39266;SDS011;24967;51.154;13.812;2022-08-30T08:45:28;4.55;;;4.00;;
39266;SDS011;24967;51.154;13.812;2022-08-30T08:48:05;3.75;;;3.45;;
39266;SDS011;24967;51.154;13.812;2022-08-30T08:50:35;3.60;;;3.30;;
39266;SDS011;24967;51.154;13.812;2022-08-30T08:53:22;5.57;;;4.03;;
39266;SDS011;24967;51.154;13.812;2022-08-30T08:56:00;4.10;;;3.80;;
39266;SDS011;24967;51.154;13.812;2022-08-30T08:58:29;4.00;;;3.50;;
39266;SDS011;24967;51.154;13.812;2022-08-30T09:01:05;5.82;;;3.35;;
39266;SDS011;24967;51.154;13.812;2022-08-30T09:03:33;3.35;;;3.15;;
39266;SDS011;24967;51.154;13.812;2022-08-30T09:06:01;5.30;;;3.60;;
39266;SDS011;24967;51.154;13.812;2022-08-30T09:08:32;3.95;;;3.55;;
39266;SDS011;24967;51.154;13.812;2022-08-30T09:11:01;4.40;;;3.33;;
39266;SDS011;24967;51.154;13.812;2022-08-30T09:13:30;6.18;;;3.83;;
39266;SDS011;24967;51.154;13.812;2022-08-30T09:15:57;3.42;;;3.13;;
39266;SDS011;24967;51.154;13.812;2022-08-30T09:18:42;3.05;;;2.85;;
39266;SDS011;24967;51.154;13.812;2022-08-30T09:21:10;3.25;;;3.05;;
39266;SDS011;24967;51.154;13.812;2022-08-30T09:23:45;4.00;;;2.78;;
39266;SDS011;24967;51.154;13.812;2022-08-30T09:26:13;3.08;;;2.88;;
39266;SDS011;24967;51.154;13.812;2022-08-30T09:28:52;7.32;;;3.03;;
39266;SDS011;24967;51.154;13.812;2022-08-30T09:31:19;3.20;;;2.85;;
39266;SDS011;24967;51.154;13.812;2022-08-30T09:33:54;2.85;;;2.65;;
39266;SDS011;24967;51.154;13.812;2022-08-30T09:36:24;4.70;;;2.97;;
39266;SDS011;24967;51.154;13.812;2022-08-30T09:38:56;3.00;;;2.80;;
39266;SDS011;24967;51.154;13.812;2022-08-30T09:41:29;3.33;;;2.55;;
39266;SDS011;24967;51.154;13.812;2022-08-30T09:44:04;3.83;;;2.17;;
39266;SDS011;24967;51.154;13.812;2022-08-30T09:46:33;2.65;;;2.45;;
39266;SDS011;24967;51.154;13.812;2022-08-30T09:49:21;2.22;;;2.08;;
39266;SDS011;24967;51.154;13.812;2022-08-30T09:51:54;2.10;;;1.90;;
39266;SDS011;24967;51.154;13.812;2022-08-30T09:54:33;2.45;;;2.13;;
39266;SDS011;24967;51.154;13.812;2022-08-30T09:57:05;2.38;;;2.15;;
39266;SDS011;24967;51.154;13.812;2022-08-30T09:59:40;2.75;;;2.13;;
39266;SDS011;24967;51.154;13.812;2022-08-30T10:02:19;2.65;;;2.42;;
39266;SDS011;24967;51.154;13.812;2022-08-30T10:04:58;2.20;;;2.10;;
39266;SDS011;24967;51.154;13.812;2022-08-30T10:07:29;3.40;;;2.50;;
39266;SDS011;24967;51.154;13.812;2022-08-30T10:10:04;2.20;;;2.10;;
39266;SDS011;24967;51.154;13.812;2022-08-30T10:12:37;2.42;;;2.13;;
39266;SDS011;24967;51.154;13.812;2022-08-30T10:15:09;3.33;;;2.55;;
39266;SDS011;24967;51.154;13.812;2022-08-30T10:17:49;2.58;;;2.35;;
39266;SDS011;24967;51.154;13.812;2022-08-30T10:20:35;3.78;;;2.42;;
39266;SDS011;24967;51.154;13.812;2022-08-30T10:23:08;3.25;;;2.25;;
39266;SDS011;24967;51.154;13.812;2022-08-30T10:25:42;5.65;;;2.67;;
39266;SDS011;24967;51.154;13.812;2022-08-30T10:28:15;2.35;;;2.17;;
39266;SDS011;24967;51.154;13.812;2022-08-30T10:30:46;3.13;;;2.80;;
39266;SDS011;24967;51.154;13.812;2022-08-30T10:33:20;3.78;;;2.60;;
39266;SDS011;24967;51.154;13.812;2022-08-30T10:35:52;4.63;;;2.42;;
39266;SDS011;24967;51.154;13.812;2022-08-30T10:38:23;2.88;;;2.67;;
39266;SDS011;24967;51.154;13.812;2022-08-30T10:40:56;3.40;;;2.95;;
39266;SDS011;24967;51.154;13.812;2022-08-30T10:43:40;2.60;;;2.50;;
39266;SDS011;24967;51.154;13.812;2022-08-30T10:46:15;3.65;;;2.58;;
39266;SDS011;24967;51.154;13.812;2022-08-30T10:48:47;3.88;;;2.67;;
39266;SDS011;24967;51.154;13.812;2022-08-30T10:51:15;4.95;;;2.17;;
39266;SDS011;24967;51.154;13.812;2022-08-30T10:53:50;2.78;;;2.58;;
39266;SDS011;24967;51.154;13.812;2022-08-30T10:56:21;3.47;;;2.15;;
39266;SDS011;24967;51.154;13.812;2022-08-30T10:58:53;2.00;;;1.90;;
39266;SDS011;24967;51.154;13.812;2022-08-30T11:01:28;2.08;;;1.95;;
39266;SDS011;24967;51.154;13.812;2022-08-30T11:04:23;2.72;;;1.83;;
39266;SDS011;24967;51.154;13.812;2022-08-30T11:07:12;2.15;;;1.95;;
39266;SDS011;24967;51.154;13.812;2022-08-30T11:09:50;2.17;;;2.00;;
39266;SDS011;24967;51.154;13.812;2022-08-30T11:12:33;2.30;;;2.10;;
39266;SDS011;24967;51.154;13.812;2022-08-30T11:15:14;3.67;;;2.08;;
39266;SDS011;24967;51.154;13.812;2022-08-30T11:17:45;2.60;;;2.03;;
39266;SDS011;24967;51.154;13.812;2022-08-30T11:20:22;2.00;;;1.90;;
39266;SDS011;24967;51.154;13.812;2022-08-30T11:25:51;2.08;;;1.92;;
39266;SDS011;24967;51.154;13.812;2022-08-30T11:31:34;3.75;;;2.03;;
39266;SDS011;24967;51.154;13.812;2022-08-30T11:34:07;2.22;;;2.10;;
39266;SDS011;24967;51.154;13.812;2022-08-30T11:42:24;5.70;;;2.53;;
39266;SDS011;24967;51.154;13.812;2022-08-30T11:48:00;3.33;;;2.90;;
39266;SDS011;24967;51.154;13.812;2022-08-30T11:50:30;6.05;;;3.22;;
39266;SDS011;24967;51.154;13.812;2022-08-30T11:53:02;3.33;;;3.03;;
39266;SDS011;24967;51.154;13.812;2022-08-30T11:58:27;3.45;;;3.15;;
39266;SDS011;24967;51.154;13.812;2022-08-30T12:04:00;5.03;;;2.78;;
39266;SDS011;24967;51.154;13.812;2022-08-30T12:06:46;3.28;;;2.97;;
39266;SDS011;24967;51.154;13.812;2022-08-30T12:12:45;3.35;;;3.15;;
39266;SDS011;24967;51.154;13.812;2022-08-30T12:15:28;4.43;;;3.20;;
39266;SDS011;24967;51.154;13.812;2022-08-30T12:18:27;3.80;;;2.80;;
39266;SDS011;24967;51.154;13.812;2022-08-30T12:21:00;4.43;;;3.00;;
39266;SDS011;24967;51.154;13.812;2022-08-30T12:23:36;3.50;;;2.95;;
39266;SDS011;24967;51.154;13.812;2022-08-30T12:26:12;3.28;;;2.95;;
39266;SDS011;24967;51.154;13.812;2022-08-30T12:28:44;3.42;;;3.03;;
39266;SDS011;24967;51.154;13.812;2022-08-30T12:31:14;3.30;;;2.70;;
39266;SDS011;24967;51.154;13.812;2022-08-30T12:33:45;4.80;;;3.28;;
39266;SDS011;24967;51.154;13.812;2022-08-30T12:36:15;3.17;;;2.97;;
39266;SDS011;24967;51.154;13.812;2022-08-30T12:39:03;3.38;;;3.17;;
39266;SDS011;24967;51.154;13.812;2022-08-30T12:41:33;4.47;;;3.08;;
39266;SDS011;24967;51.154;13.812;2022-08-30T12:44:01;4.25;;;3.08;;
39266;SDS011;24967;51.154;13.812;2022-08-30T12:46:29;3.50;;;3.30;;
39266;SDS011;24967;51.154;13.812;2022-08-30T12:48:56;2.88;;;2.70;;
39266;SDS011;24967;51.154;13.812;2022-08-30T12:51:25;3.63;;;2.83;;
39266;SDS011;24967;51.154;13.812;2022-08-30T13:02:15;2.22;;;2.13;;
39266;SDS011;24967;51.154;13.812;2022-08-30T13:04:44;2.58;;;2.45;;
39266;SDS011;24967;51.154;13.812;2022-08-30T13:07:22;2.40;;;2.20;;
39266;SDS011;24967;51.154;13.812;2022-08-30T13:09:57;2.63;;;2.53;;
39266;SDS011;24967;51.154;13.812;2022-08-30T13:12:27;2.50;;;2.30;;
39266;SDS011;24967;51.154;13.812;2022-08-30T13:15:08;4.28;;;2.45;;
39266;SDS011;24967;51.154;13.812;2022-08-30T13:17:37;2.25;;;2.15;;
39266;SDS011;24967;51.154;13.812;2022-08-30T13:20:04;3.10;;;2.45;;
39266;SDS011;24967;51.154;13.812;2022-08-30T13:22:59;2.58;;;2.45;;
39266;SDS011;24967;51.154;13.812;2022-08-30T13:25:28;2.30;;;2.10;;
39266;SDS011;24967;51.154;13.812;2022-08-30T13:27:55;2.08;;;1.88;;
39266;SDS011;24967;51.154;13.812;2022-08-30T13:30:23;4.18;;;2.22;;
39266;SDS011;24967;51.154;13.812;2022-08-30T13:32:49;3.80;;;2.38;;
39266;SDS011;24967;51.154;13.812;2022-08-30T13:35:16;2.65;;;2.15;;
39266;SDS011;24967;51.154;13.812;2022-08-30T13:37:42;2.00;;;1.90;;
39266;SDS011;24967;51.154;13.812;2022-08-30T13:40:09;2.30;;;2.15;;
39266;SDS011;24967;51.154;13.812;2022-08-30T13:42:38;2.38;;;2.28;;
39266;SDS011;24967;51.154;13.812;2022-08-30T13:45:07;2.53;;;2.10;;
39266;SDS011;24967;51.154;13.812;2022-08-30T13:47:35;2.13;;;2.03;;
39266;SDS011;24967;51.154;13.812;2022-08-30T13:50:02;2.33;;;2.22;;
39266;SDS011;24967;51.154;13.812;2022-08-30T13:52:30;3.00;;;2.53;;
39266;SDS011;24967;51.154;13.812;2022-08-30T13:54:56;2.35;;;2.25;;
39266;SDS011;24967;51.154;13.812;2022-08-30T13:57:24;2.80;;;2.60;;
39266;SDS011;24967;51.154;13.812;2022-08-30T13:59:54;2.45;;;2.15;;
39266;SDS011;24967;51.154;13.812;2022-08-30T14:02:26;2.50;;;2.20;;
39266;SDS011;24967;51.154;13.812;2022-08-30T14:04:54;2.58;;;1.92;;
39266;SDS011;24967;51.154;13.812;2022-08-30T14:07:20;1.90;;;1.80;;
39266;SDS011;24967;51.154;13.812;2022-08-30T14:09:47;1.83;;;1.73;;
39266;SDS011;24967;51.154;13.812;2022-08-30T14:12:13;2.33;;;1.92;;
39266;SDS011;24967;51.154;13.812;2022-08-30T14:14:40;1.90;;;1.80;;
39266;SDS011;24967;51.154;13.812;2022-08-30T14:17:06;1.80;;;1.70;;
39266;SDS011;24967;51.154;13.812;2022-08-30T14:19:32;1.90;;;1.80;;
39266;SDS011;24967;51.154;13.812;2022-08-30T14:22:00;6.45;;;2.00;;
39266;SDS011;24967;51.154;13.812;2022-08-30T14:24:27;2.53;;;2.33;;
39266;SDS011;24967;51.154;13.812;2022-08-30T14:26:53;2.78;;;2.60;;
39266;SDS011;24967;51.154;13.812;2022-08-30T14:29:21;3.47;;;2.53;;
39266;SDS011;24967;51.154;13.812;2022-08-30T14:31:50;2.10;;;2.00;;
39266;SDS011;24967;51.154;13.812;2022-08-30T14:34:17;2.40;;;2.20;;
39266;SDS011;24967;51.154;13.812;2022-08-30T14:36:45;3.53;;;2.20;;
39266;SDS011;24967;51.154;13.812;2022-08-30T14:39:14;1.75;;;1.65;;
39266;SDS011;24967;51.154;13.812;2022-08-30T14:41:44;2.00;;;1.88;;
39266;SDS011;24967;51.154;13.812;2022-08-30T14:44:14;2.00;;;1.80;;
39266;SDS011;24967;51.154;13.812;2022-08-30T14:46:41;1.80;;;1.70;;
39266;SDS011;24967;51.154;13.812;2022-08-30T14:49:08;1.90;;;1.80;;
39266;SDS011;24967;51.154;13.812;2022-08-30T14:51:36;5.80;;;2.60;;
39266;SDS011;24967;51.154;13.812;2022-08-30T14:54:04;5.97;;;2.38;;
39266;SDS011;24967;51.154;13.812;2022-08-30T14:56:32;5.78;;;2.22;;
39266;SDS011;24967;51.154;13.812;2022-08-30T14:58:59;2.10;;;2.00;;
39266;SDS011;24967;51.154;13.812;2022-08-30T15:01:27;2.28;;;1.77;;
39266;SDS011;24967;51.154;13.812;2022-08-30T15:03:54;2.20;;;1.88;;
39266;SDS011;24967;51.154;13.812;2022-08-30T15:06:21;2.40;;;2.20;;
39266;SDS011;24967;51.154;13.812;2022-08-30T15:08:48;1.80;;;1.70;;
39266;SDS011;24967;51.154;13.812;2022-08-30T15:11:16;2.65;;;1.80;;
39266;SDS011;24967;51.154;13.812;2022-08-30T15:13:45;1.98;;;1.65;;
39266;SDS011;24967;51.154;13.812;2022-08-30T15:16:13;3.40;;;1.98;;
39266;SDS011;24967;51.154;13.812;2022-08-30T15:18:41;2.03;;;1.92;;
39266;SDS011;24967;51.154;13.812;2022-08-30T15:21:08;2.15;;;2.05;;
39266;SDS011;24967;51.154;13.812;2022-08-30T15:23:35;1.75;;;1.73;;
39266;SDS011;24967;51.154;13.812;2022-08-30T15:26:02;2.38;;;1.83;;